sensor_id;sensor_type;location;lat;lon;timestamp;P1;durP1;ratioP1;P2;durP2;ratioP2
77880;SDS011;67077;50.298;18.996;2023-06-19T00:02:11;16.60;;;12.70;;
77880;SDS011;67077;50.298;18.996;2023-06-19T00:04:37;18.60;;;13.80;;
77880;SDS011;67077;50.298;18.996;2023-06-19T00:07:04;19.90;;;13.20;;
77880;SDS011;67077;50.298;18.996;2023-06-19T00:09:31;19.20;;;12.70;;
77880;SDS011;67077;50.298;18.996;2023-06-19T00:11:59;20.90;;;13.90;;
77880;SDS011;67077;50.298;18.996;2023-06-19T00:14:25;24.70;;;14.10;;
77880;SDS011;67077;50.298;18.996;2023-06-19T00:16:52;21.50;;;13.80;;
77880;SDS011;67077;50.298;18.996;2023-06-19T00:19:19;21.70;;;15.00;;
77880;SDS011;67077;50.298;18.996;2023-06-19T00:21:45;24.70;;;15.50;;
77880;SDS011;67077;50.298;18.996;2023-06-19T00:24:12;24.20;;;16.40;;
77880;SDS011;67077;50.298;18.996;2023-06-19T00:26:39;21.40;;;14.90;;
77880;SDS011;67077;50.298;18.996;2023-06-19T00:29:06;22.70;;;13.90;;
77880;SDS011;67077;50.298;18.996;2023-06-19T00:31:33;20.00;;;12.50;;
77880;SDS011;67077;50.298;18.996;2023-06-19T00:34:03;18.50;;;12.20;;
77880;SDS011;67077;50.298;18.996;2023-06-19T00:36:30;23.50;;;16.00;;
77880;SDS011;67077;50.298;18.996;2023-06-19T00:38:56;24.10;;;15.80;;
77880;SDS011;67077;50.298;18.996;2023-06-19T00:41:23;26.20;;;15.40;;
77880;SDS011;67077;50.298;18.996;2023-06-19T00:43:52;28.50;;;17.00;;
77880;SDS011;67077;50.298;18.996;2023-06-19T00:46:20;24.70;;;15.80;;
77880;SDS011;67077;50.298;18.996;2023-06-19T00:48:47;27.20;;;16.30;;
77880;SDS011;67077;50.298;18.996;2023-06-19T00:51:14;27.40;;;16.50;;
77880;SDS011;67077;50.298;18.996;2023-06-19T00:53:41;24.00;;;16.40;;
77880;SDS011;67077;50.298;18.996;2023-06-19T00:56:07;25.90;;;17.20;;
77880;SDS011;67077;50.298;18.996;2023-06-19T00:58:35;25.80;;;17.40;;
77880;SDS011;67077;50.298;18.996;2023-06-19T01:01:02;25.30;;;18.00;;
77880;SDS011;67077;50.298;18.996;2023-06-19T01:03:29;27.80;;;16.90;;
77880;SDS011;67077;50.298;18.996;2023-06-19T01:05:56;25.10;;;15.20;;
77880;SDS011;67077;50.298;18.996;2023-06-19T01:11:23;23.50;;;14.80;;
77880;SDS011;67077;50.298;18.996;2023-06-19T01:13:55;23.90;;;16.30;;
77880;SDS011;67077;50.298;18.996;2023-06-19T01:16:26;32.80;;;18.70;;
77880;SDS011;67077;50.298;18.996;2023-06-19T01:18:54;25.50;;;17.70;;
77880;SDS011;67077;50.298;18.996;2023-06-19T01:21:22;27.70;;;17.00;;
77880;SDS011;67077;50.298;18.996;2023-06-19T01:23:49;24.70;;;16.60;;
77880;SDS011;67077;50.298;18.996;2023-06-19T01:26:16;24.40;;;16.10;;
77880;SDS011;67077;50.298;18.996;2023-06-19T01:28:43;25.30;;;16.40;;
77880;SDS011;67077;50.298;18.996;2023-06-19T01:31:13;23.50;;;15.60;;
77880;SDS011;67077;50.298;18.996;2023-06-19T01:33:44;24.90;;;16.40;;
77880;SDS011;67077;50.298;18.996;2023-06-19T01:36:12;26.30;;;16.90;;
77880;SDS011;67077;50.298;18.996;2023-06-19T01:38:40;25.80;;;16.90;;
77880;SDS011;67077;50.298;18.996;2023-06-19T01:41:10;28.70;;;17.40;;
77880;SDS011;67077;50.298;18.996;2023-06-19T01:43:38;23.60;;;16.10;;
77880;SDS011;67077;50.298;18.996;2023-06-19T01:46:05;24.50;;;16.90;;
77880;SDS011;67077;50.298;18.996;2023-06-19T01:48:32;26.00;;;17.50;;
77880;SDS011;67077;50.298;18.996;2023-06-19T01:50:59;25.50;;;17.70;;
77880;SDS011;67077;50.298;18.996;2023-06-19T01:53:25;26.40;;;17.60;;
77880;SDS011;67077;50.298;18.996;2023-06-19T01:55:52;25.30;;;16.30;;
77880;SDS011;67077;50.298;18.996;2023-06-19T01:58:19;24.90;;;15.30;;
77880;SDS011;67077;50.298;18.996;2023-06-19T02:00:45;22.50;;;14.70;;
77880;SDS011;67077;50.298;18.996;2023-06-19T02:03:13;23.90;;;15.80;;
77880;SDS011;67077;50.298;18.996;2023-06-19T02:05:40;25.00;;;16.70;;
77880;SDS011;67077;50.298;18.996;2023-06-19T02:08:06;23.80;;;15.80;;
77880;SDS011;67077;50.298;18.996;2023-06-19T02:10:33;26.10;;;16.40;;
77880;SDS011;67077;50.298;18.996;2023-06-19T02:13:00;21.70;;;15.50;;
77880;SDS011;67077;50.298;18.996;2023-06-19T02:15:26;24.70;;;16.50;;
77880;SDS011;67077;50.298;18.996;2023-06-19T02:17:56;25.40;;;16.10;;
77880;SDS011;67077;50.298;18.996;2023-06-19T02:20:23;21.70;;;15.70;;
77880;SDS011;67077;50.298;18.996;2023-06-19T02:22:53;22.80;;;15.90;;
77880;SDS011;67077;50.298;18.996;2023-06-19T02:25:20;25.70;;;17.40;;
77880;SDS011;67077;50.298;18.996;2023-06-19T02:27:46;25.80;;;17.20;;
77880;SDS011;67077;50.298;18.996;2023-06-19T02:30:14;25.80;;;18.40;;
77880;SDS011;67077;50.298;18.996;2023-06-19T02:32:41;24.10;;;16.00;;
77880;SDS011;67077;50.298;18.996;2023-06-19T02:35:08;24.70;;;15.90;;
77880;SDS011;67077;50.298;18.996;2023-06-19T02:37:36;24.50;;;16.30;;
77880;SDS011;67077;50.298;18.996;2023-06-19T02:40:06;24.60;;;17.30;;
77880;SDS011;67077;50.298;18.996;2023-06-19T02:42:35;23.40;;;16.90;;
77880;SDS011;67077;50.298;18.996;2023-06-19T02:45:02;26.70;;;17.10;;
77880;SDS011;67077;50.298;18.996;2023-06-19T02:47:30;25.70;;;16.60;;
77880;SDS011;67077;50.298;18.996;2023-06-19T02:50:00;26.90;;;16.80;;
77880;SDS011;67077;50.298;18.996;2023-06-19T02:52:28;24.00;;;15.60;;
77880;SDS011;67077;50.298;18.996;2023-06-19T02:54:56;22.10;;;16.20;;
77880;SDS011;67077;50.298;18.996;2023-06-19T02:57:22;25.30;;;17.60;;
77880;SDS011;67077;50.298;18.996;2023-06-19T02:59:49;25.10;;;17.00;;
77880;SDS011;67077;50.298;18.996;2023-06-19T03:02:15;26.60;;;17.30;;
77880;SDS011;67077;50.298;18.996;2023-06-19T03:04:42;24.30;;;16.40;;
77880;SDS011;67077;50.298;18.996;2023-06-19T03:07:10;24.60;;;16.20;;
77880;SDS011;67077;50.298;18.996;2023-06-19T03:09:39;23.40;;;16.30;;
77880;SDS011;67077;50.298;18.996;2023-06-19T03:12:06;23.90;;;16.50;;
77880;SDS011;67077;50.298;18.996;2023-06-19T03:14:33;25.30;;;16.00;;
77880;SDS011;67077;50.298;18.996;2023-06-19T03:16:59;21.70;;;15.80;;
77880;SDS011;67077;50.298;18.996;2023-06-19T03:19:26;24.30;;;16.00;;
77880;SDS011;67077;50.298;18.996;2023-06-19T03:21:53;26.20;;;16.80;;
77880;SDS011;67077;50.298;18.996;2023-06-19T03:24:19;23.80;;;15.60;;
77880;SDS011;67077;50.298;18.996;2023-06-19T03:26:46;23.30;;;17.10;;
77880;SDS011;67077;50.298;18.996;2023-06-19T03:29:13;22.70;;;16.50;;
77880;SDS011;67077;50.298;18.996;2023-06-19T03:31:39;26.50;;;16.50;;
77880;SDS011;67077;50.298;18.996;2023-06-19T03:34:06;23.20;;;16.80;;
77880;SDS011;67077;50.298;18.996;2023-06-19T03:36:32;24.50;;;16.60;;
77880;SDS011;67077;50.298;18.996;2023-06-19T03:38:59;27.10;;;16.00;;
77880;SDS011;67077;50.298;18.996;2023-06-19T03:41:26;21.50;;;15.20;;
77880;SDS011;67077;50.298;18.996;2023-06-19T03:43:52;25.60;;;16.40;;
77880;SDS011;67077;50.298;18.996;2023-06-19T03:46:19;22.30;;;15.60;;
77880;SDS011;67077;50.298;18.996;2023-06-19T03:48:46;25.10;;;16.10;;
77880;SDS011;67077;50.298;18.996;2023-06-19T03:51:12;24.40;;;15.50;;
77880;SDS011;67077;50.298;18.996;2023-06-19T03:53:39;21.00;;;13.60;;
77880;SDS011;67077;50.298;18.996;2023-06-19T03:56:07;22.10;;;16.30;;
77880;SDS011;67077;50.298;18.996;2023-06-19T03:58:33;24.60;;;17.00;;
77880;SDS011;67077;50.298;18.996;2023-06-19T04:01:00;23.40;;;16.20;;
77880;SDS011;67077;50.298;18.996;2023-06-19T04:03:26;24.90;;;17.40;;
77880;SDS011;67077;50.298;18.996;2023-06-19T04:05:53;26.10;;;17.40;;
77880;SDS011;67077;50.298;18.996;2023-06-19T04:08:20;25.40;;;16.40;;
77880;SDS011;67077;50.298;18.996;2023-06-19T04:10:46;22.20;;;14.60;;
77880;SDS011;67077;50.298;18.996;2023-06-19T04:13:13;19.40;;;14.70;;
77880;SDS011;67077;50.298;18.996;2023-06-19T04:15:40;18.50;;;14.10;;
77880;SDS011;67077;50.298;18.996;2023-06-19T04:18:11;19.60;;;13.80;;
77880;SDS011;67077;50.298;18.996;2023-06-19T04:20:38;18.80;;;14.20;;
77880;SDS011;67077;50.298;18.996;2023-06-19T04:23:04;21.10;;;14.70;;
77880;SDS011;67077;50.298;18.996;2023-06-19T04:25:31;23.30;;;16.50;;
77880;SDS011;67077;50.298;18.996;2023-06-19T04:27:58;24.80;;;16.70;;
77880;SDS011;67077;50.298;18.996;2023-06-19T04:30:25;25.40;;;16.90;;
77880;SDS011;67077;50.298;18.996;2023-06-19T04:32:52;23.40;;;16.50;;
77880;SDS011;67077;50.298;18.996;2023-06-19T04:35:19;23.30;;;16.00;;
77880;SDS011;67077;50.298;18.996;2023-06-19T04:37:46;20.60;;;16.40;;
77880;SDS011;67077;50.298;18.996;2023-06-19T04:40:15;22.90;;;16.40;;
77880;SDS011;67077;50.298;18.996;2023-06-19T04:42:42;24.70;;;16.50;;
77880;SDS011;67077;50.298;18.996;2023-06-19T04:45:08;25.60;;;16.60;;
77880;SDS011;67077;50.298;18.996;2023-06-19T04:47:35;25.10;;;16.00;;
77880;SDS011;67077;50.298;18.996;2023-06-19T04:50:02;20.80;;;16.20;;
77880;SDS011;67077;50.298;18.996;2023-06-19T04:52:29;23.00;;;16.60;;
77880;SDS011;67077;50.298;18.996;2023-06-19T04:54:58;19.50;;;15.20;;
77880;SDS011;67077;50.298;18.996;2023-06-19T04:57:25;21.10;;;16.20;;
77880;SDS011;67077;50.298;18.996;2023-06-19T04:59:51;22.30;;;15.50;;
77880;SDS011;67077;50.298;18.996;2023-06-19T05:02:18;21.20;;;15.20;;
77880;SDS011;67077;50.298;18.996;2023-06-19T05:04:45;23.20;;;16.10;;
77880;SDS011;67077;50.298;18.996;2023-06-19T05:07:12;21.40;;;14.80;;
77880;SDS011;67077;50.298;18.996;2023-06-19T05:09:40;36.50;;;25.90;;
77880;SDS011;67077;50.298;18.996;2023-06-19T05:12:07;24.20;;;18.40;;
77880;SDS011;67077;50.298;18.996;2023-06-19T05:14:34;23.10;;;15.90;;
77880;SDS011;67077;50.298;18.996;2023-06-19T05:17:01;24.10;;;17.00;;
77880;SDS011;67077;50.298;18.996;2023-06-19T05:19:27;28.30;;;18.30;;
77880;SDS011;67077;50.298;18.996;2023-06-19T05:21:54;26.70;;;18.10;;
77880;SDS011;67077;50.298;18.996;2023-06-19T05:24:21;22.70;;;17.00;;
77880;SDS011;67077;50.298;18.996;2023-06-19T05:26:48;21.00;;;15.70;;
77880;SDS011;67077;50.298;18.996;2023-06-19T05:29:14;20.20;;;14.80;;
77880;SDS011;67077;50.298;18.996;2023-06-19T05:31:41;20.20;;;15.10;;
77880;SDS011;67077;50.298;18.996;2023-06-19T05:34:07;21.70;;;15.00;;
77880;SDS011;67077;50.298;18.996;2023-06-19T05:36:34;26.80;;;15.00;;
77880;SDS011;67077;50.298;18.996;2023-06-19T05:39:01;22.80;;;14.40;;
77880;SDS011;67077;50.298;18.996;2023-06-19T05:41:34;24.70;;;14.90;;
77880;SDS011;67077;50.298;18.996;2023-06-19T05:44:19;24.60;;;15.10;;
77880;SDS011;67077;50.298;18.996;2023-06-19T05:46:46;22.20;;;15.10;;
77880;SDS011;67077;50.298;18.996;2023-06-19T05:49:13;23.10;;;14.90;;
77880;SDS011;67077;50.298;18.996;2023-06-19T05:51:39;27.00;;;15.20;;
77880;SDS011;67077;50.298;18.996;2023-06-19T05:54:06;28.30;;;15.80;;
77880;SDS011;67077;50.298;18.996;2023-06-19T05:56:33;27.80;;;15.00;;
77880;SDS011;67077;50.298;18.996;2023-06-19T05:59:00;25.40;;;15.30;;
77880;SDS011;67077;50.298;18.996;2023-06-19T06:01:28;26.70;;;14.10;;
77880;SDS011;67077;50.298;18.996;2023-06-19T06:03:55;23.90;;;14.20;;
77880;SDS011;67077;50.298;18.996;2023-06-19T06:06:24;26.30;;;13.90;;
77880;SDS011;67077;50.298;18.996;2023-06-19T06:08:52;22.30;;;13.40;;
77880;SDS011;67077;50.298;18.996;2023-06-19T06:11:19;22.80;;;13.30;;
77880;SDS011;67077;50.298;18.996;2023-06-19T06:13:46;20.10;;;12.00;;
77880;SDS011;67077;50.298;18.996;2023-06-19T06:16:13;15.90;;;10.80;;
77880;SDS011;67077;50.298;18.996;2023-06-19T06:18:41;15.10;;;11.10;;
77880;SDS011;67077;50.298;18.996;2023-06-19T06:21:07;17.70;;;11.70;;
77880;SDS011;67077;50.298;18.996;2023-06-19T06:23:34;18.20;;;12.10;;
77880;SDS011;67077;50.298;18.996;2023-06-19T06:26:01;19.70;;;11.50;;
77880;SDS011;67077;50.298;18.996;2023-06-19T06:28:28;19.60;;;12.10;;
77880;SDS011;67077;50.298;18.996;2023-06-19T06:30:55;16.70;;;11.20;;
77880;SDS011;67077;50.298;18.996;2023-06-19T06:33:22;16.30;;;11.10;;
77880;SDS011;67077;50.298;18.996;2023-06-19T06:35:49;16.20;;;11.70;;
77880;SDS011;67077;50.298;18.996;2023-06-19T06:38:17;17.50;;;11.10;;
77880;SDS011;67077;50.298;18.996;2023-06-19T06:40:44;24.90;;;11.30;;
77880;SDS011;67077;50.298;18.996;2023-06-19T06:43:11;19.90;;;11.50;;
77880;SDS011;67077;50.298;18.996;2023-06-19T06:45:38;16.10;;;11.20;;
77880;SDS011;67077;50.298;18.996;2023-06-19T06:48:04;19.20;;;13.50;;
77880;SDS011;67077;50.298;18.996;2023-06-19T06:50:33;20.10;;;12.90;;
77880;SDS011;67077;50.298;18.996;2023-06-19T06:53:03;25.80;;;15.90;;
77880;SDS011;67077;50.298;18.996;2023-06-19T06:55:32;20.70;;;15.20;;
77880;SDS011;67077;50.298;18.996;2023-06-19T06:57:59;20.50;;;15.00;;
77880;SDS011;67077;50.298;18.996;2023-06-19T07:00:26;22.30;;;14.50;;
77880;SDS011;67077;50.298;18.996;2023-06-19T07:02:54;27.30;;;13.80;;
77880;SDS011;67077;50.298;18.996;2023-06-19T07:05:20;20.40;;;12.70;;
77880;SDS011;67077;50.298;18.996;2023-06-19T07:07:47;21.00;;;13.70;;
77880;SDS011;67077;50.298;18.996;2023-06-19T07:10:14;22.30;;;13.80;;
77880;SDS011;67077;50.298;18.996;2023-06-19T07:12:45;22.20;;;12.00;;
77880;SDS011;67077;50.298;18.996;2023-06-19T07:15:16;32.00;;;13.90;;
77880;SDS011;67077;50.298;18.996;2023-06-19T07:17:46;20.40;;;12.00;;
77880;SDS011;67077;50.298;18.996;2023-06-19T07:20:14;20.20;;;11.60;;
77880;SDS011;67077;50.298;18.996;2023-06-19T07:22:41;15.10;;;10.60;;
77880;SDS011;67077;50.298;18.996;2023-06-19T07:25:09;17.30;;;10.90;;
77880;SDS011;67077;50.298;18.996;2023-06-19T07:27:37;17.20;;;11.30;;
77880;SDS011;67077;50.298;18.996;2023-06-19T07:30:06;21.00;;;12.40;;
77880;SDS011;67077;50.298;18.996;2023-06-19T07:32:34;20.40;;;11.30;;
77880;SDS011;67077;50.298;18.996;2023-06-19T07:35:01;18.30;;;11.70;;
77880;SDS011;67077;50.298;18.996;2023-06-19T07:37:27;16.40;;;11.60;;
77880;SDS011;67077;50.298;18.996;2023-06-19T07:39:54;18.80;;;12.10;;
77880;SDS011;67077;50.298;18.996;2023-06-19T07:42:21;16.20;;;11.60;;
77880;SDS011;67077;50.298;18.996;2023-06-19T07:44:48;18.10;;;10.90;;
77880;SDS011;67077;50.298;18.996;2023-06-19T07:47:15;20.40;;;11.70;;
77880;SDS011;67077;50.298;18.996;2023-06-19T07:49:45;16.00;;;9.60;;
77880;SDS011;67077;50.298;18.996;2023-06-19T07:52:11;20.50;;;10.50;;
77880;SDS011;67077;50.298;18.996;2023-06-19T07:54:55;18.40;;;10.70;;
77880;SDS011;67077;50.298;18.996;2023-06-19T07:57:24;15.10;;;9.40;;
77880;SDS011;67077;50.298;18.996;2023-06-19T07:59:52;16.20;;;8.80;;
77880;SDS011;67077;50.298;18.996;2023-06-19T08:02:20;15.10;;;9.90;;
77880;SDS011;67077;50.298;18.996;2023-06-19T08:04:52;12.90;;;8.70;;
77880;SDS011;67077;50.298;18.996;2023-06-19T08:07:18;15.50;;;8.90;;
77880;SDS011;67077;50.298;18.996;2023-06-19T08:09:45;14.40;;;8.80;;
77880;SDS011;67077;50.298;18.996;2023-06-19T08:12:12;11.00;;;7.80;;
77880;SDS011;67077;50.298;18.996;2023-06-19T08:14:39;10.40;;;7.60;;
77880;SDS011;67077;50.298;18.996;2023-06-19T08:17:40;11.90;;;8.20;;
77880;SDS011;67077;50.298;18.996;2023-06-19T08:20:12;13.50;;;7.70;;
77880;SDS011;67077;50.298;18.996;2023-06-19T08:22:39;15.70;;;7.50;;
77880;SDS011;67077;50.298;18.996;2023-06-19T08:25:06;10.70;;;6.90;;
77880;SDS011;67077;50.298;18.996;2023-06-19T08:27:33;11.70;;;7.80;;
77880;SDS011;67077;50.298;18.996;2023-06-19T08:30:00;10.50;;;7.50;;
77880;SDS011;67077;50.298;18.996;2023-06-19T08:32:26;10.50;;;7.50;;
77880;SDS011;67077;50.298;18.996;2023-06-19T08:34:53;12.70;;;7.60;;
77880;SDS011;67077;50.298;18.996;2023-06-19T08:37:20;9.90;;;6.90;;
77880;SDS011;67077;50.298;18.996;2023-06-19T08:39:47;10.50;;;7.30;;
77880;SDS011;67077;50.298;18.996;2023-06-19T08:42:15;9.70;;;7.30;;
77880;SDS011;67077;50.298;18.996;2023-06-19T08:44:42;11.60;;;7.00;;
77880;SDS011;67077;50.298;18.996;2023-06-19T08:47:09;10.50;;;7.20;;
77880;SDS011;67077;50.298;18.996;2023-06-19T08:49:38;11.90;;;7.10;;
77880;SDS011;67077;50.298;18.996;2023-06-19T08:52:08;17.00;;;7.60;;
77880;SDS011;67077;50.298;18.996;2023-06-19T08:54:35;11.20;;;7.00;;
77880;SDS011;67077;50.298;18.996;2023-06-19T08:57:10;13.20;;;7.70;;
77880;SDS011;67077;50.298;18.996;2023-06-19T08:59:37;17.90;;;7.40;;
77880;SDS011;67077;50.298;18.996;2023-06-19T09:02:04;10.30;;;7.10;;
77880;SDS011;67077;50.298;18.996;2023-06-19T09:04:31;11.60;;;7.00;;
77880;SDS011;67077;50.298;18.996;2023-06-19T09:06:58;9.20;;;6.60;;
77880;SDS011;67077;50.298;18.996;2023-06-19T09:09:27;14.30;;;7.40;;
77880;SDS011;67077;50.298;18.996;2023-06-19T09:11:57;8.30;;;6.80;;
77880;SDS011;67077;50.298;18.996;2023-06-19T09:17:46;7.30;;;5.80;;
77880;SDS011;67077;50.298;18.996;2023-06-19T09:37:28;8.80;;;6.60;;
77880;SDS011;67077;50.298;18.996;2023-06-19T10:17:10;7.50;;;5.90;;
77880;SDS011;67077;50.298;18.996;2023-06-19T10:20:53;5.80;;;5.10;;
77880;SDS011;67077;50.298;18.996;2023-06-19T10:29:17;6.40;;;5.60;;
77880;SDS011;67077;50.298;18.996;2023-06-19T10:41:04;7.80;;;6.00;;
77880;SDS011;67077;50.298;18.996;2023-06-19T11:10:24;9.60;;;5.80;;
77880;SDS011;67077;50.298;18.996;2023-06-19T11:13:42;9.60;;;6.40;;
77880;SDS011;67077;50.298;18.996;2023-06-19T11:33:32;8.40;;;5.00;;
77880;SDS011;67077;50.298;18.996;2023-06-19T11:49:49;6.50;;;5.10;;
77880;SDS011;67077;50.298;18.996;2023-06-19T12:01:20;6.00;;;5.40;;
77880;SDS011;67077;50.298;18.996;2023-06-19T12:04:14;6.10;;;5.50;;
77880;SDS011;67077;50.298;18.996;2023-06-19T12:06:41;9.80;;;5.80;;
77880;SDS011;67077;50.298;18.996;2023-06-19T12:09:08;6.70;;;5.70;;
77880;SDS011;67077;50.298;18.996;2023-06-19T12:11:36;8.80;;;5.80;;
77880;SDS011;67077;50.298;18.996;2023-06-19T12:14:03;7.50;;;5.40;;
77880;SDS011;67077;50.298;18.996;2023-06-19T12:16:30;8.70;;;5.10;;
77880;SDS011;67077;50.298;18.996;2023-06-19T12:18:57;5.70;;;5.10;;
77880;SDS011;67077;50.298;18.996;2023-06-19T12:21:25;5.60;;;5.00;;
77880;SDS011;67077;50.298;18.996;2023-06-19T12:23:52;10.10;;;5.70;;
77880;SDS011;67077;50.298;18.996;2023-06-19T12:26:20;8.00;;;5.20;;
77880;SDS011;67077;50.298;18.996;2023-06-19T12:28:51;8.20;;;5.10;;
77880;SDS011;67077;50.298;18.996;2023-06-19T12:31:19;8.20;;;5.20;;
77880;SDS011;67077;50.298;18.996;2023-06-19T12:33:46;6.40;;;5.20;;
77880;SDS011;67077;50.298;18.996;2023-06-19T12:36:14;7.00;;;4.90;;
77880;SDS011;67077;50.298;18.996;2023-06-19T12:38:43;6.90;;;4.80;;
77880;SDS011;67077;50.298;18.996;2023-06-19T12:41:11;6.20;;;5.10;;
77880;SDS011;67077;50.298;18.996;2023-06-19T12:43:38;5.40;;;4.70;;
77880;SDS011;67077;50.298;18.996;2023-06-19T12:46:04;6.20;;;4.90;;
77880;SDS011;67077;50.298;18.996;2023-06-19T12:48:31;7.20;;;4.50;;
77880;SDS011;67077;50.298;18.996;2023-06-19T12:50:58;6.50;;;4.80;;
77880;SDS011;67077;50.298;18.996;2023-06-19T12:53:25;6.70;;;4.80;;
77880;SDS011;67077;50.298;18.996;2023-06-19T12:55:59;10.40;;;5.00;;
77880;SDS011;67077;50.298;18.996;2023-06-19T12:58:26;5.10;;;4.60;;
77880;SDS011;67077;50.298;18.996;2023-06-19T13:00:54;5.80;;;4.70;;
77880;SDS011;67077;50.298;18.996;2023-06-19T13:03:24;6.90;;;4.30;;
77880;SDS011;67077;50.298;18.996;2023-06-19T13:05:51;4.60;;;4.20;;
77880;SDS011;67077;50.298;18.996;2023-06-19T13:08:18;5.20;;;4.70;;
77880;SDS011;67077;50.298;18.996;2023-06-19T13:10:44;5.50;;;4.30;;
77880;SDS011;67077;50.298;18.996;2023-06-19T13:13:12;8.40;;;4.50;;
77880;SDS011;67077;50.298;18.996;2023-06-19T13:15:39;7.70;;;4.80;;
77880;SDS011;67077;50.298;18.996;2023-06-19T13:18:09;4.90;;;4.20;;
77880;SDS011;67077;50.298;18.996;2023-06-19T13:20:38;4.60;;;4.10;;
77880;SDS011;67077;50.298;18.996;2023-06-19T13:23:11;5.60;;;4.30;;
77880;SDS011;67077;50.298;18.996;2023-06-19T13:25:39;8.70;;;4.80;;
77880;SDS011;67077;50.298;18.996;2023-06-19T13:28:07;6.80;;;4.60;;
77880;SDS011;67077;50.298;18.996;2023-06-19T13:30:35;5.00;;;4.50;;
77880;SDS011;67077;50.298;18.996;2023-06-19T13:33:03;6.30;;;4.50;;
77880;SDS011;67077;50.298;18.996;2023-06-19T13:35:32;6.80;;;4.90;;
77880;SDS011;67077;50.298;18.996;2023-06-19T13:38:03;7.60;;;4.80;;
77880;SDS011;67077;50.298;18.996;2023-06-19T13:40:31;5.70;;;5.00;;
77880;SDS011;67077;50.298;18.996;2023-06-19T13:43:03;5.20;;;4.70;;
77880;SDS011;67077;50.298;18.996;2023-06-19T13:45:30;5.10;;;4.60;;
77880;SDS011;67077;50.298;18.996;2023-06-19T13:47:58;5.70;;;4.50;;
77880;SDS011;67077;50.298;18.996;2023-06-19T13:53:14;5.60;;;5.00;;
77880;SDS011;67077;50.298;18.996;2023-06-19T13:58:33;8.60;;;5.10;;
77880;SDS011;67077;50.298;18.996;2023-06-19T14:03:58;7.30;;;5.30;;
77880;SDS011;67077;50.298;18.996;2023-06-19T14:13:59;5.80;;;5.20;;
77880;SDS011;67077;50.298;18.996;2023-06-19T14:16:45;5.80;;;4.90;;
77880;SDS011;67077;50.298;18.996;2023-06-19T14:33:10;6.30;;;5.20;;
77880;SDS011;67077;50.298;18.996;2023-06-19T14:36:03;5.60;;;5.00;;
77880;SDS011;67077;50.298;18.996;2023-06-19T14:41:01;6.30;;;5.60;;
77880;SDS011;67077;50.298;18.996;2023-06-19T14:46:24;9.00;;;5.90;;
77880;SDS011;67077;50.298;18.996;2023-06-19T14:49:00;8.30;;;6.00;;
77880;SDS011;67077;50.298;18.996;2023-06-19T14:52:02;7.90;;;5.60;;
77880;SDS011;67077;50.298;18.996;2023-06-19T14:54:30;6.80;;;5.90;;
77880;SDS011;67077;50.298;18.996;2023-06-19T14:56:57;8.00;;;5.90;;
77880;SDS011;67077;50.298;18.996;2023-06-19T14:59:25;8.00;;;5.60;;
77880;SDS011;67077;50.298;18.996;2023-06-19T15:01:52;8.30;;;5.60;;
77880;SDS011;67077;50.298;18.996;2023-06-19T15:04:20;6.00;;;5.40;;
77880;SDS011;67077;50.298;18.996;2023-06-19T15:06:48;9.90;;;6.00;;
77880;SDS011;67077;50.298;18.996;2023-06-19T15:09:16;8.30;;;5.70;;
77880;SDS011;67077;50.298;18.996;2023-06-19T15:11:44;8.10;;;5.80;;
77880;SDS011;67077;50.298;18.996;2023-06-19T15:14:11;7.70;;;5.70;;
77880;SDS011;67077;50.298;18.996;2023-06-19T15:16:39;6.30;;;5.70;;
77880;SDS011;67077;50.298;18.996;2023-06-19T15:19:06;7.20;;;5.70;;
77880;SDS011;67077;50.298;18.996;2023-06-19T15:21:33;7.70;;;5.90;;
77880;SDS011;67077;50.298;18.996;2023-06-19T15:24:01;7.40;;;5.80;;
77880;SDS011;67077;50.298;18.996;2023-06-19T15:26:28;7.20;;;5.60;;
77880;SDS011;67077;50.298;18.996;2023-06-19T15:28:55;6.40;;;5.70;;
77880;SDS011;67077;50.298;18.996;2023-06-19T15:31:25;7.80;;;5.80;;
77880;SDS011;67077;50.298;18.996;2023-06-19T15:33:53;8.40;;;5.80;;
77880;SDS011;67077;50.298;18.996;2023-06-19T15:36:20;7.70;;;5.50;;
77880;SDS011;67077;50.298;18.996;2023-06-19T15:38:49;6.60;;;5.60;;
77880;SDS011;67077;50.298;18.996;2023-06-19T15:41:16;8.40;;;5.50;;
77880;SDS011;67077;50.298;18.996;2023-06-19T15:43:44;6.00;;;5.40;;
77880;SDS011;67077;50.298;18.996;2023-06-19T15:46:12;7.40;;;5.70;;
77880;SDS011;67077;50.298;18.996;2023-06-19T15:48:41;6.40;;;5.80;;
77880;SDS011;67077;50.298;18.996;2023-06-19T15:51:10;10.30;;;5.80;;
77880;SDS011;67077;50.298;18.996;2023-06-19T15:53:44;6.50;;;5.80;;
77880;SDS011;67077;50.298;18.996;2023-06-19T15:56:14;7.20;;;5.50;;
77880;SDS011;67077;50.298;18.996;2023-06-19T15:58:42;6.40;;;5.70;;
77880;SDS011;67077;50.298;18.996;2023-06-19T16:01:15;7.30;;;5.30;;
77880;SDS011;67077;50.298;18.996;2023-06-19T16:03:44;6.10;;;5.50;;
77880;SDS011;67077;50.298;18.996;2023-06-19T16:06:13;6.40;;;5.80;;
77880;SDS011;67077;50.298;18.996;2023-06-19T16:08:41;6.10;;;5.50;;
77880;SDS011;67077;50.298;18.996;2023-06-19T16:11:09;6.60;;;5.90;;
77880;SDS011;67077;50.298;18.996;2023-06-19T16:13:37;6.70;;;5.70;;
77880;SDS011;67077;50.298;18.996;2023-06-19T16:16:07;6.80;;;5.60;;
77880;SDS011;67077;50.298;18.996;2023-06-19T16:18:34;7.00;;;5.70;;
77880;SDS011;67077;50.298;18.996;2023-06-19T16:23:51;6.80;;;5.70;;
77880;SDS011;67077;50.298;18.996;2023-06-19T16:26:22;8.30;;;5.80;;
77880;SDS011;67077;50.298;18.996;2023-06-19T16:28:49;6.90;;;5.70;;
77880;SDS011;67077;50.298;18.996;2023-06-19T16:31:19;5.80;;;5.20;;
77880;SDS011;67077;50.298;18.996;2023-06-19T16:33:46;5.90;;;5.20;;
77880;SDS011;67077;50.298;18.996;2023-06-19T16:36:12;6.60;;;5.50;;
77880;SDS011;67077;50.298;18.996;2023-06-19T16:38:39;7.60;;;6.00;;
77880;SDS011;67077;50.298;18.996;2023-06-19T16:41:06;6.70;;;5.90;;
77880;SDS011;67077;50.298;18.996;2023-06-19T16:43:33;6.60;;;5.70;;
77880;SDS011;67077;50.298;18.996;2023-06-19T16:45:59;7.50;;;5.60;;
77880;SDS011;67077;50.298;18.996;2023-06-19T16:48:26;7.00;;;5.50;;
77880;SDS011;67077;50.298;18.996;2023-06-19T16:50:53;6.70;;;5.90;;
77880;SDS011;67077;50.298;18.996;2023-06-19T16:53:19;6.20;;;5.60;;
77880;SDS011;67077;50.298;18.996;2023-06-19T16:55:48;8.90;;;6.40;;
77880;SDS011;67077;50.298;18.996;2023-06-19T16:58:15;8.60;;;6.20;;
77880;SDS011;67077;50.298;18.996;2023-06-19T17:00:42;7.40;;;6.10;;
77880;SDS011;67077;50.298;18.996;2023-06-19T17:03:09;6.80;;;6.00;;
77880;SDS011;67077;50.298;18.996;2023-06-19T17:05:36;9.50;;;6.20;;
77880;SDS011;67077;50.298;18.996;2023-06-19T17:08:02;8.40;;;6.30;;
77880;SDS011;67077;50.298;18.996;2023-06-19T17:10:29;8.60;;;6.20;;
77880;SDS011;67077;50.298;18.996;2023-06-19T17:12:56;7.50;;;5.60;;
77880;SDS011;67077;50.298;18.996;2023-06-19T17:15:22;9.70;;;6.20;;
77880;SDS011;67077;50.298;18.996;2023-06-19T17:17:50;8.20;;;5.50;;
77880;SDS011;67077;50.298;18.996;2023-06-19T17:20:16;9.80;;;6.10;;
77880;SDS011;67077;50.298;18.996;2023-06-19T17:22:43;9.20;;;5.80;;
77880;SDS011;67077;50.298;18.996;2023-06-19T17:25:10;12.20;;;5.60;;
77880;SDS011;67077;50.298;18.996;2023-06-19T17:27:37;7.30;;;5.60;;